sensor_id;sensor_type;location;lat;lon;timestamp;pressure;altitude;pressure_sealevel;temperature;humidity
45327;BME280;31062;49.678;24.560;2022-10-29T00:02:08;99085.63;;;9.60;74.45
45327;BME280;31062;49.678;24.560;2022-10-29T00:04:54;99032.06;;;9.34;74.46
45327;BME280;31062;49.678;24.560;2022-10-29T00:07:39;99067.34;;;9.49;74.77
45327;BME280;31062;49.678;24.560;2022-10-29T00:10:25;99037.59;;;9.34;74.44
45327;BME280;31062;49.678;24.560;2022-10-29T00:13:11;99077.13;;;9.50;75.29
45327;BME280;31062;49.678;24.560;2022-10-29T00:15:56;99069.00;;;9.45;75.76
45327;BME280;31062;49.678;24.560;2022-10-29T00:18:41;99035.88;;;9.24;75.81
45327;BME280;31062;49.678;24.560;2022-10-29T00:21:27;98844.16;;;7.91;76.12
45327;BME280;31062;49.678;24.560;2022-10-29T00:24:13;99070.44;;;9.38;76.49
45327;BME280;31062;49.678;24.560;2022-10-29T00:26:58;99060.47;;;9.42;77.67
45327;BME280;31062;49.678;24.560;2022-10-29T00:29:43;98888.88;;;8.25;77.74
45327;BME280;31062;49.678;24.560;2022-10-29T00:32:29;99052.53;;;9.39;78.11
45327;BME280;31062;49.678;24.560;2022-10-29T00:35:14;99071.97;;;9.47;77.59
45327;BME280;31062;49.678;24.560;2022-10-29T00:38:00;98788.16;;;7.54;77.43
45327;BME280;31062;49.678;24.560;2022-10-29T00:40:45;99067.13;;;9.39;77.77
45327;BME280;31062;49.678;24.560;2022-10-29T00:43:35;98902.94;;;8.35;77.75
45327;BME280;31062;49.678;24.560;2022-10-29T00:50:07;99053.47;;;9.34;77.86
45327;BME280;31062;49.678;24.560;2022-10-29T00:52:54;99055.28;;;9.31;77.78
45327;BME280;31062;49.678;24.560;2022-10-29T00:55:41;99038.50;;;9.29;77.88
45327;BME280;31062;49.678;24.560;2022-10-29T00:58:27;99033.47;;;9.20;77.65
45327;BME280;31062;49.678;24.560;2022-10-29T01:01:13;99059.66;;;9.19;77.34
45327;BME280;31062;49.678;24.560;2022-10-29T01:03:59;98969.06;;;8.61;77.45
45327;BME280;31062;49.678;24.560;2022-10-29T01:06:46;99025.72;;;9.11;77.64
45327;BME280;31062;49.678;24.560;2022-10-29T01:09:32;99034.00;;;9.19;78.16
45327;BME280;31062;49.678;24.560;2022-10-29T01:21:39;98858.84;;;7.86;78.76
45327;BME280;31062;49.678;24.560;2022-10-29T01:24:45;99026.03;;;9.08;79.67
45327;BME280;31062;49.678;24.560;2022-10-29T01:27:47;99027.88;;;9.05;79.63
45327;BME280;31062;49.678;24.560;2022-10-29T01:34:15;98967.22;;;8.64;79.97
45327;BME280;31062;49.678;24.560;2022-10-29T01:37:07;99012.50;;;8.89;80.15
45327;BME280;31062;49.678;24.560;2022-10-29T01:40:12;99019.50;;;8.90;80.41
45327;BME280;31062;49.678;24.560;2022-10-29T01:43:10;98987.19;;;8.77;80.33
45327;BME280;31062;49.678;24.560;2022-10-29T01:46:16;99027.09;;;8.97;80.25
45327;BME280;31062;49.678;24.560;2022-10-29T01:49:08;98824.91;;;7.77;79.48
45327;BME280;31062;49.678;24.560;2022-10-29T01:51:57;99028.97;;;9.02;80.04
45327;BME280;31062;49.678;24.560;2022-10-29T01:54:46;98804.63;;;7.67;79.83
45327;BME280;31062;49.678;24.560;2022-10-29T01:57:35;98822.69;;;7.76;79.28
45327;BME280;31062;49.678;24.560;2022-10-29T02:00:21;98958.78;;;8.77;79.55
45327;BME280;31062;49.678;24.560;2022-10-29T02:03:49;98932.06;;;8.36;78.96
45327;BME280;31062;49.678;24.560;2022-10-29T02:06:31;99017.88;;;8.94;78.72
45327;BME280;31062;49.678;24.560;2022-10-29T02:09:46;98928.44;;;8.48;79.27
45327;BME280;31062;49.678;24.560;2022-10-29T02:12:40;98996.47;;;8.87;78.71
45327;BME280;31062;49.678;24.560;2022-10-29T02:15:35;98796.13;;;7.65;78.36
45327;BME280;31062;49.678;24.560;2022-10-29T02:18:22;98948.06;;;8.66;78.92
45327;BME280;31062;49.678;24.560;2022-10-29T02:21:08;98927.63;;;8.33;78.70
45327;BME280;31062;49.678;24.560;2022-10-29T02:23:54;98941.63;;;8.63;78.50
45327;BME280;31062;49.678;24.560;2022-10-29T02:26:39;98786.09;;;7.47;78.69
45327;BME280;31062;49.678;24.560;2022-10-29T02:29:24;98811.91;;;7.57;78.72
45327;BME280;31062;49.678;24.560;2022-10-29T02:32:10;98947.22;;;8.42;78.52
45327;BME280;31062;49.678;24.560;2022-10-29T02:34:55;98935.00;;;8.09;78.88
45327;BME280;31062;49.678;24.560;2022-10-29T02:37:40;98973.03;;;8.52;78.80
45327;BME280;31062;49.678;24.560;2022-10-29T02:40:26;98978.94;;;8.49;79.02
45327;BME280;31062;49.678;24.560;2022-10-29T02:43:11;98971.53;;;8.44;79.91
45327;BME280;31062;49.678;24.560;2022-10-29T02:46:17;98774.44;;;7.13;80.26
45327;BME280;31062;49.678;24.560;2022-10-29T02:49:03;98776.97;;;7.11;80.47
45327;BME280;31062;49.678;24.560;2022-10-29T02:51:48;98961.91;;;8.37;81.22
45327;BME280;31062;49.678;24.560;2022-10-29T02:54:34;98783.97;;;7.12;80.56
45327;BME280;31062;49.678;24.560;2022-10-29T02:57:20;98884.75;;;7.83;80.99
45327;BME280;31062;49.678;24.560;2022-10-29T03:00:06;98951.22;;;8.34;79.93
45327;BME280;31062;49.678;24.560;2022-10-29T03:02:51;98948.47;;;8.13;78.90
45327;BME280;31062;49.678;24.560;2022-10-29T03:05:36;98946.03;;;8.30;78.72
45327;BME280;31062;49.678;24.560;2022-10-29T03:08:22;98967.53;;;8.52;78.92
45327;BME280;31062;49.678;24.560;2022-10-29T03:11:08;98771.78;;;7.28;78.85
45327;BME280;31062;49.678;24.560;2022-10-29T03:13:53;98817.41;;;7.57;78.67
45327;BME280;31062;49.678;24.560;2022-10-29T03:16:39;98972.47;;;8.46;78.68
45327;BME280;31062;49.678;24.560;2022-10-29T03:19:24;98930.63;;;8.42;79.40
45327;BME280;31062;49.678;24.560;2022-10-29T03:22:10;98953.91;;;8.54;78.55
45327;BME280;31062;49.678;24.560;2022-10-29T03:24:55;98911.22;;;8.06;78.22
45327;BME280;31062;49.678;24.560;2022-10-29T03:27:42;98908.84;;;8.31;78.50
45327;BME280;31062;49.678;24.560;2022-10-29T03:30:27;98938.44;;;8.51;77.87
45327;BME280;31062;49.678;24.560;2022-10-29T03:33:13;98795.63;;;7.46;77.77
45327;BME280;31062;49.678;24.560;2022-10-29T03:36:00;98747.25;;;7.17;78.37
45327;BME280;31062;49.678;24.560;2022-10-29T03:38:46;98937.78;;;8.38;78.13
45327;BME280;31062;49.678;24.560;2022-10-29T03:41:31;98748.00;;;7.17;78.16
45327;BME280;31062;49.678;24.560;2022-10-29T03:44:17;98936.16;;;8.42;77.78
45327;BME280;31062;49.678;24.560;2022-10-29T03:47:02;98922.13;;;8.40;78.04
45327;BME280;31062;49.678;24.560;2022-10-29T03:49:48;98875.69;;;8.03;77.41
45327;BME280;31062;49.678;24.560;2022-10-29T03:52:33;98926.19;;;8.39;77.88
45327;BME280;31062;49.678;24.560;2022-10-29T03:55:19;98874.75;;;8.00;77.64
45327;BME280;31062;49.678;24.560;2022-10-29T03:58:04;98847.38;;;7.82;78.17
45327;BME280;31062;49.678;24.560;2022-10-29T04:01:04;98754.75;;;7.37;78.16
45327;BME280;31062;49.678;24.560;2022-10-29T04:03:50;98756.84;;;7.44;77.99
45327;BME280;31062;49.678;24.560;2022-10-29T04:06:35;98906.72;;;8.52;77.70
45327;BME280;31062;49.678;24.560;2022-10-29T04:09:20;98894.13;;;8.36;77.23
45327;BME280;31062;49.678;24.560;2022-10-29T04:12:06;98713.47;;;7.24;75.96
45327;BME280;31062;49.678;24.560;2022-10-29T04:14:52;98888.97;;;8.40;76.55
45327;BME280;31062;49.678;24.560;2022-10-29T04:17:38;98892.16;;;8.16;76.36
45327;BME280;31062;49.678;24.560;2022-10-29T04:20:23;98891.16;;;8.34;76.09
45327;BME280;31062;49.678;24.560;2022-10-29T04:23:29;98894.63;;;8.27;76.21
45327;BME280;31062;49.678;24.560;2022-10-29T04:26:34;98882.50;;;8.30;76.11
45327;BME280;31062;49.678;24.560;2022-10-29T04:29:40;98706.72;;;7.04;76.44
45327;BME280;31062;49.678;24.560;2022-10-29T04:32:26;98763.63;;;7.43;76.22
45327;BME280;31062;49.678;24.560;2022-10-29T04:35:12;98832.78;;;8.02;76.14
45327;BME280;31062;49.678;24.560;2022-10-29T04:37:57;98888.41;;;8.34;77.12
45327;BME280;31062;49.678;24.560;2022-10-29T04:40:42;98717.88;;;7.19;77.50
45327;BME280;31062;49.678;24.560;2022-10-29T04:43:28;98906.13;;;8.39;77.16
45327;BME280;31062;49.678;24.560;2022-10-29T04:46:13;98811.94;;;7.93;76.81
45327;BME280;31062;49.678;24.560;2022-10-29T04:48:59;98738.59;;;7.41;77.41
45327;BME280;31062;49.678;24.560;2022-10-29T04:51:45;98730.53;;;7.43;76.98
45327;BME280;31062;49.678;24.560;2022-10-29T04:54:30;98761.53;;;7.64;76.87
45327;BME280;31062;49.678;24.560;2022-10-29T04:57:15;98799.88;;;7.75;76.25
45327;BME280;31062;49.678;24.560;2022-10-29T05:00:01;98889.69;;;8.33;76.54
45327;BME280;31062;49.678;24.560;2022-10-29T05:02:47;98889.50;;;8.31;75.99
45327;BME280;31062;49.678;24.560;2022-10-29T05:05:35;98840.56;;;8.11;76.24
45327;BME280;31062;49.678;24.560;2022-10-29T05:08:22;98735.50;;;7.45;76.47
45327;BME280;31062;49.678;24.560;2022-10-29T05:11:08;98700.00;;;7.13;76.77
45327;BME280;31062;49.678;24.560;2022-10-29T05:13:53;98851.31;;;8.22;76.29
45327;BME280;31062;49.678;24.560;2022-10-29T05:16:38;98841.72;;;8.23;76.58
45327;BME280;31062;49.678;24.560;2022-10-29T05:19:24;98817.72;;;8.10;76.83
45327;BME280;31062;49.678;24.560;2022-10-29T05:22:09;98874.41;;;8.32;77.13
45327;BME280;31062;49.678;24.560;2022-10-29T05:24:55;98725.41;;;7.47;77.59
45327;BME280;31062;49.678;24.560;2022-10-29T05:27:41;98683.09;;;7.16;77.94
45327;BME280;31062;49.678;24.560;2022-10-29T05:30:26;98817.00;;;8.10;78.19
45327;BME280;31062;49.678;24.560;2022-10-29T05:33:21;98876.88;;;8.51;78.61
45327;BME280;31062;49.678;24.560;2022-10-29T05:36:07;98881.16;;;8.59;78.29
45327;BME280;31062;49.678;24.560;2022-10-29T05:38:53;98858.28;;;8.23;78.48
45327;BME280;31062;49.678;24.560;2022-10-29T05:41:38;98810.91;;;8.11;78.32
45327;BME280;31062;49.678;24.560;2022-10-29T05:44:24;98881.75;;;8.73;78.55
45327;BME280;31062;49.678;24.560;2022-10-29T05:47:09;98762.28;;;8.01;78.13
45327;BME280;31062;49.678;24.560;2022-10-29T05:49:55;98888.06;;;8.89;78.56
45327;BME280;31062;49.678;24.560;2022-10-29T05:52:40;98857.44;;;8.72;78.54
45327;BME280;31062;49.678;24.560;2022-10-29T05:55:28;98907.66;;;9.06;77.79
45327;BME280;31062;49.678;24.560;2022-10-29T05:58:13;98871.50;;;8.96;78.07
45327;BME280;31062;49.678;24.560;2022-10-29T06:00:59;98704.84;;;7.92;78.22
45327;BME280;31062;49.678;24.560;2022-10-29T06:03:44;98848.28;;;8.92;77.79
45327;BME280;31062;49.678;24.560;2022-10-29T06:06:30;98753.53;;;8.25;77.65
45327;BME280;31062;49.678;24.560;2022-10-29T06:09:15;98870.75;;;8.96;78.34
45327;BME280;31062;49.678;24.560;2022-10-29T06:12:01;98861.59;;;9.16;77.98
45327;BME280;31062;49.678;24.560;2022-10-29T06:14:47;98880.81;;;9.52;77.64
45327;BME280;31062;49.678;24.560;2022-10-29T06:17:33;98879.34;;;9.59;77.99
45327;BME280;31062;49.678;24.560;2022-10-29T06:20:20;98843.50;;;9.30;77.71
45327;BME280;31062;49.678;24.560;2022-10-29T06:23:06;98868.97;;;9.82;77.89
45327;BME280;31062;49.678;24.560;2022-10-29T06:25:51;98757.03;;;9.07;77.66
45327;BME280;31062;49.678;24.560;2022-10-29T06:28:37;98852.38;;;9.82;77.89
45327;BME280;31062;49.678;24.560;2022-10-29T06:31:22;98876.13;;;10.15;77.81
45327;BME280;31062;49.678;24.560;2022-10-29T06:34:08;98874.66;;;10.30;77.42
45327;BME280;31062;49.678;24.560;2022-10-29T06:36:54;98708.72;;;9.23;77.33
45327;BME280;31062;49.678;24.560;2022-10-29T06:39:40;98693.75;;;9.26;76.74
45327;BME280;31062;49.678;24.560;2022-10-29T06:42:25;98875.22;;;10.68;77.27
45327;BME280;31062;49.678;24.560;2022-10-29T06:45:10;98820.84;;;10.33;76.66
45327;BME280;31062;49.678;24.560;2022-10-29T06:47:56;98864.19;;;10.93;76.18
45327;BME280;31062;49.678;24.560;2022-10-29T06:50:43;98862.69;;;10.99;75.81
45327;BME280;31062;49.678;24.560;2022-10-29T06:53:28;98866.81;;;11.16;75.60
45327;BME280;31062;49.678;24.560;2022-10-29T06:56:14;98865.53;;;11.17;75.56
45327;BME280;31062;49.678;24.560;2022-10-29T06:58:59;98700.88;;;10.07;75.31
45327;BME280;31062;49.678;24.560;2022-10-29T07:01:44;98796.25;;;10.77;75.20
45327;BME280;31062;49.678;24.560;2022-10-29T07:04:31;98847.41;;;11.16;75.03
45327;BME280;31062;49.678;24.560;2022-10-29T07:07:16;98698.47;;;10.11;74.85
45327;BME280;31062;49.678;24.560;2022-10-29T07:10:02;98865.50;;;11.24;75.17
45327;BME280;31062;49.678;24.560;2022-10-29T07:12:47;98693.50;;;10.02;75.36
45327;BME280;31062;49.678;24.560;2022-10-29T07:15:33;98864.06;;;11.16;75.72
45327;BME280;31062;49.678;24.560;2022-10-29T07:18:18;98865.72;;;11.19;76.11
45327;BME280;31062;49.678;24.560;2022-10-29T07:21:04;98725.94;;;10.25;76.04
45327;BME280;31062;49.678;24.560;2022-10-29T07:23:50;98858.56;;;11.08;76.32
45327;BME280;31062;49.678;24.560;2022-10-29T07:26:35;98831.03;;;11.02;76.57
45327;BME280;31062;49.678;24.560;2022-10-29T07:29:21;98862.78;;;10.84;76.61
45327;BME280;31062;49.678;24.560;2022-10-29T07:32:06;98860.72;;;11.17;77.22
45327;BME280;31062;49.678;24.560;2022-10-29T07:34:52;98801.28;;;10.71;77.92
45327;BME280;31062;49.678;24.560;2022-10-29T07:37:37;98680.91;;;10.16;77.70
45327;BME280;31062;49.678;24.560;2022-10-29T07:40:23;98821.47;;;11.21;77.55
45327;BME280;31062;49.678;24.560;2022-10-29T07:43:08;98819.19;;;11.27;77.24
45327;BME280;31062;49.678;24.560;2022-10-29T07:45:53;98876.97;;;11.70;76.67
45327;BME280;31062;49.678;24.560;2022-10-29T07:48:39;98864.34;;;11.77;76.64
45327;BME280;31062;49.678;24.560;2022-10-29T07:51:24;98857.25;;;11.83;76.80
45327;BME280;31062;49.678;24.560;2022-10-29T07:54:10;98785.38;;;11.45;76.23
45327;BME280;31062;49.678;24.560;2022-10-29T07:56:59;98836.84;;;11.89;76.46
45327;BME280;31062;49.678;24.560;2022-10-29T07:59:44;98747.22;;;11.29;76.79
45327;BME280;31062;49.678;24.560;2022-10-29T08:02:31;98840.03;;;12.02;77.09
45327;BME280;31062;49.678;24.560;2022-10-29T08:05:17;98710.47;;;11.21;77.28
45327;BME280;31062;49.678;24.560;2022-10-29T08:08:03;98835.03;;;12.18;77.80
45327;BME280;31062;49.678;24.560;2022-10-29T08:10:49;98821.72;;;12.16;77.51
45327;BME280;31062;49.678;24.560;2022-10-29T08:13:35;98832.59;;;12.39;77.58
45327;BME280;31062;49.678;24.560;2022-10-29T08:16:20;98808.22;;;12.30;77.96
45327;BME280;31062;49.678;24.560;2022-10-29T08:19:08;98706.25;;;11.71;78.35
45327;BME280;31062;49.678;24.560;2022-10-29T08:21:54;98802.66;;;12.30;78.44
45327;BME280;31062;49.678;24.560;2022-10-29T08:24:40;98653.16;;;11.67;78.29
45327;BME280;31062;49.678;24.560;2022-10-29T08:27:26;98702.31;;;12.09;78.10
45327;BME280;31062;49.678;24.560;2022-10-29T08:30:14;98809.66;;;13.02;77.31
45327;BME280;31062;49.678;24.560;2022-10-29T08:33:00;98649.91;;;12.05;76.86
45327;BME280;31062;49.678;24.560;2022-10-29T08:35:46;98783.69;;;12.90;76.55
45327;BME280;31062;49.678;24.560;2022-10-29T08:38:32;98826.69;;;13.42;76.49
45327;BME280;31062;49.678;24.560;2022-10-29T08:44:55;98825.28;;;13.61;75.41
45327;BME280;31062;49.678;24.560;2022-10-29T08:48:05;98789.03;;;13.41;75.17
45327;BME280;31062;49.678;24.560;2022-10-29T08:51:24;98823.41;;;13.73;75.24
45327;BME280;31062;49.678;24.560;2022-10-29T08:54:14;98818.84;;;13.77;75.76
45327;BME280;31062;49.678;24.560;2022-10-29T08:57:20;98830.63;;;13.95;75.08
45327;BME280;31062;49.678;24.560;2022-10-29T09:00:16;98822.56;;;14.09;74.32
45327;BME280;31062;49.678;24.560;2022-10-29T09:03:08;98784.56;;;13.94;74.29
45327;BME280;31062;49.678;24.560;2022-10-29T09:14:39;98653.16;;;13.30;73.72
45327;BME280;31062;49.678;24.560;2022-10-29T09:24:16;98668.28;;;13.46;74.19
45327;BME280;31062;49.678;24.560;2022-10-29T09:27:17;98799.97;;;14.43;75.00
45327;BME280;31062;49.678;24.560;2022-10-29T09:30:15;98778.97;;;14.32;74.80
45327;BME280;31062;49.678;24.560;2022-10-29T09:33:10;98656.84;;;13.52;75.45
45327;BME280;31062;49.678;24.560;2022-10-29T09:35:58;98772.81;;;14.24;75.63
45327;BME280;31062;49.678;24.560;2022-10-29T09:41:43;98788.50;;;14.49;75.13
45327;BME280;31062;49.678;24.560;2022-10-29T09:44:39;98808.44;;;14.74;74.53
45327;BME280;31062;49.678;24.560;2022-10-29T09:47:41;98797.69;;;14.80;73.22
45327;BME280;31062;49.678;24.560;2022-10-29T09:50:39;98707.66;;;14.29;72.56
45327;BME280;31062;49.678;24.560;2022-10-29T09:53:25;98711.00;;;14.38;72.56
45327;BME280;31062;49.678;24.560;2022-10-29T09:56:11;98812.56;;;15.13;71.55
45327;BME280;31062;49.678;24.560;2022-10-29T09:59:27;98634.72;;;14.14;71.28
45327;BME280;31062;49.678;24.560;2022-10-29T10:02:27;98637.78;;;14.27;71.78
45327;BME280;31062;49.678;24.560;2022-10-29T10:05:22;98655.63;;;14.53;71.37
45327;BME280;31062;49.678;24.560;2022-10-29T10:08:13;98644.16;;;14.59;70.47
45327;BME280;31062;49.678;24.560;2022-10-29T10:11:04;98723.19;;;15.13;70.06
45327;BME280;31062;49.678;24.560;2022-10-29T10:13:57;98772.63;;;15.63;69.21
45327;BME280;31062;49.678;24.560;2022-10-29T10:16:44;98708.47;;;15.23;68.99
45327;BME280;31062;49.678;24.560;2022-10-29T10:19:30;98623.84;;;14.68;68.75
45327;BME280;31062;49.678;24.560;2022-10-29T10:22:21;98793.41;;;15.81;68.62
45327;BME280;31062;49.678;24.560;2022-10-29T10:25:32;98768.63;;;15.87;68.19
45327;BME280;31062;49.678;24.560;2022-10-29T10:31:11;98769.91;;;15.96;67.51
45327;BME280;31062;49.678;24.560;2022-10-29T10:33:57;98617.50;;;14.98;67.04
45327;BME280;31062;49.678;24.560;2022-10-29T10:36:54;98749.31;;;15.91;67.03
45327;BME280;31062;49.678;24.560;2022-10-29T10:39:51;98604.41;;;15.01;66.62
45327;BME280;31062;49.678;24.560;2022-10-29T10:42:40;98729.75;;;15.91;65.52
45327;BME280;31062;49.678;24.560;2022-10-29T10:45:37;98569.81;;;14.85;65.92
45327;BME280;31062;49.678;24.560;2022-10-29T10:48:25;98746.63;;;16.15;66.82
45327;BME280;31062;49.678;24.560;2022-10-29T10:51:22;98751.25;;;16.22;66.12
45327;BME280;31062;49.678;24.560;2022-10-29T10:54:40;98599.69;;;15.25;66.00
45327;BME280;31062;49.678;24.560;2022-10-29T10:57:32;98720.47;;;16.10;65.90
45327;BME280;31062;49.678;24.560;2022-10-29T11:00:20;98764.16;;;16.27;66.57
45327;BME280;31062;49.678;24.560;2022-10-29T11:03:14;98720.38;;;16.20;66.17
45327;BME280;31062;49.678;24.560;2022-10-29T11:06:06;98733.28;;;16.25;66.50
45327;BME280;31062;49.678;24.560;2022-10-29T11:12:05;98693.06;;;15.97;65.89
45327;BME280;31062;49.678;24.560;2022-10-29T11:15:00;98731.44;;;16.18;66.29
45327;BME280;31062;49.678;24.560;2022-10-29T11:17:59;98723.03;;;16.18;66.69
45327;BME280;31062;49.678;24.560;2022-10-29T11:24:04;98725.97;;;16.20;66.85
45327;BME280;31062;49.678;24.560;2022-10-29T11:26:58;98629.47;;;15.53;67.21
45327;BME280;31062;49.678;24.560;2022-10-29T11:30:01;98669.47;;;15.88;67.76
45327;BME280;31062;49.678;24.560;2022-10-29T11:33:21;98719.69;;;16.31;67.24
45327;BME280;31062;49.678;24.560;2022-10-29T11:36:21;98591.25;;;15.46;66.95
45327;BME280;31062;49.678;24.560;2022-10-29T11:39:14;98713.38;;;16.42;67.12
45327;BME280;31062;49.678;24.560;2022-10-29T11:42:02;98618.63;;;15.80;66.52
45327;BME280;31062;49.678;24.560;2022-10-29T11:44:48;98670.72;;;16.09;65.92
45327;BME280;31062;49.678;24.560;2022-10-29T11:47:56;98651.78;;;16.19;66.12
45327;BME280;31062;49.678;24.560;2022-10-29T11:51:02;98685.78;;;16.48;66.67
45327;BME280;31062;49.678;24.560;2022-10-29T11:56:50;98689.34;;;16.60;67.29
45327;BME280;31062;49.678;24.560;2022-10-29T12:02:50;98709.91;;;16.65;68.12
45327;BME280;31062;49.678;24.560;2022-10-29T12:14:29;98692.75;;;16.82;66.52
45327;BME280;31062;49.678;24.560;2022-10-29T12:23:47;98550.88;;;16.26;65.47
45327;BME280;31062;49.678;24.560;2022-10-29T12:36:01;98608.03;;;16.82;66.24
45327;BME280;31062;49.678;24.560;2022-10-29T12:38:54;98607.00;;;17.12;65.81
45327;BME280;31062;49.678;24.560;2022-10-29T12:41:45;98674.44;;;17.39;64.08
45327;BME280;31062;49.678;24.560;2022-10-29T12:54:17;98660.94;;;17.73;63.23
45327;BME280;31062;49.678;24.560;2022-10-29T13:03:08;98640.13;;;17.89;62.14
45327;BME280;31062;49.678;24.560;2022-10-29T13:05:55;98622.41;;;17.73;62.06
45327;BME280;31062;49.678;24.560;2022-10-29T13:08:40;98614.81;;;17.76;61.52
45327;BME280;31062;49.678;24.560;2022-10-29T13:11:46;98633.91;;;17.91;61.94
45327;BME280;31062;49.678;24.560;2022-10-29T13:17:34;98594.66;;;17.54;61.85
45327;BME280;31062;49.678;24.560;2022-10-29T13:20:23;98471.94;;;16.77;61.78
45327;BME280;31062;49.678;24.560;2022-10-29T13:26:07;98579.34;;;17.43;61.26
45327;BME280;31062;49.678;24.560;2022-10-29T13:28:53;98613.38;;;17.75;61.13
45327;BME280;31062;49.678;24.560;2022-10-29T13:31:44;98663.50;;;17.94;61.61
45327;BME280;31062;49.678;24.560;2022-10-29T13:38:10;98620.59;;;17.66;60.81
45327;BME280;31062;49.678;24.560;2022-10-29T13:44:38;98582.38;;;17.47;61.25
45327;BME280;31062;49.678;24.560;2022-10-29T13:47:00;98493.56;;;16.88;60.45
45327;BME280;31062;49.678;24.560;2022-10-29T13:49:47;98500.69;;;16.77;60.50
45327;BME280;31062;49.678;24.560;2022-10-29T13:52:34;98479.00;;;16.78;60.92
45327;BME280;31062;49.678;24.560;2022-10-29T13:55:21;98468.06;;;16.70;60.29
45327;BME280;31062;49.678;24.560;2022-10-29T13:58:28;98508.16;;;16.98;60.86
45327;BME280;31062;49.678;24.560;2022-10-29T14:01:17;98618.25;;;17.74;61.06
45327;BME280;31062;49.678;24.560;2022-10-29T14:04:23;98510.63;;;16.92;60.94
45327;BME280;31062;49.678;24.560;2022-10-29T14:07:15;98625.31;;;17.75;60.85
45327;BME280;31062;49.678;24.560;2022-10-29T14:10:07;98486.28;;;16.83;60.83
45327;BME280;31062;49.678;24.560;2022-10-29T14:13:51;98602.94;;;17.64;61.35
45327;BME280;31062;49.678;24.560;2022-10-29T14:16:12;98487.28;;;16.76;61.09
45327;BME280;31062;49.678;24.560;2022-10-29T14:19:12;98533.94;;;17.08;61.11
45327;BME280;31062;49.678;24.560;2022-10-29T14:21:58;98584.75;;;17.39;61.47
45327;BME280;31062;49.678;24.560;2022-10-29T14:24:43;98481.25;;;16.67;62.13
45327;BME280;31062;49.678;24.560;2022-10-29T14:27:29;98643.41;;;17.61;61.60
45327;BME280;31062;49.678;24.560;2022-10-29T14:30:18;98562.38;;;17.28;61.35
45327;BME280;31062;49.678;24.560;2022-10-29T14:33:24;98598.06;;;17.52;61.43
45327;BME280;31062;49.678;24.560;2022-10-29T14:41:46;98605.22;;;17.30;61.77
45327;BME280;31062;49.678;24.560;2022-10-29T14:44:34;98619.09;;;17.40;61.58
45327;BME280;31062;49.678;24.560;2022-10-29T14:47:24;98621.78;;;17.38;61.96
45327;BME280;31062;49.678;24.560;2022-10-29T14:50:23;98469.47;;;16.34;61.56
45327;BME280;31062;49.678;24.560;2022-10-29T14:56:10;98456.00;;;16.19;61.87
45327;BME280;31062;49.678;24.560;2022-10-29T14:59:11;98613.28;;;17.24;62.01
45327;BME280;31062;49.678;24.560;2022-10-29T15:02:00;98618.66;;;17.20;61.96
45327;BME280;31062;49.678;24.560;2022-10-29T15:05:28;98487.97;;;16.16;61.94
45327;BME280;31062;49.678;24.560;2022-10-29T15:08:17;98633.53;;;17.11;62.07
45327;BME280;31062;49.678;24.560;2022-10-29T15:11:32;98645.97;;;17.08;62.15
45327;BME280;31062;49.678;24.560;2022-10-29T15:17:20;98642.81;;;17.02;62.55
45327;BME280;31062;49.678;24.560;2022-10-29T15:23:31;98632.38;;;16.91;62.62
45327;BME280;31062;49.678;24.560;2022-10-29T15:26:21;98555.47;;;16.33;62.65
45327;BME280;31062;49.678;24.560;2022-10-29T15:29:09;98493.47;;;15.90;62.53
45327;BME280;31062;49.678;24.560;2022-10-29T15:31:56;98484.72;;;15.84;62.50
45327;BME280;31062;49.678;24.560;2022-10-29T15:34:54;98627.16;;;16.73;62.71
45327;BME280;31062;49.678;24.560;2022-10-29T15:37:42;98598.53;;;16.40;63.05
45327;BME280;31062;49.678;24.560;2022-10-29T15:40:44;98639.44;;;16.68;62.61
45327;BME280;31062;49.678;24.560;2022-10-29T15:44:26;98622.00;;;16.47;63.16
45327;BME280;31062;49.678;24.560;2022-10-29T15:47:21;98497.41;;;15.52;63.13
45327;BME280;31062;49.678;24.560;2022-10-29T15:50:32;98602.91;;;16.20;63.46
45327;BME280;31062;49.678;24.560;2022-10-29T15:53:20;98638.06;;;16.46;63.39
45327;BME280;31062;49.678;24.560;2022-10-29T15:56:10;98636.22;;;16.39;63.56
45327;BME280;31062;49.678;24.560;2022-10-29T15:58:57;98585.13;;;16.04;63.48
45327;BME280;31062;49.678;24.560;2022-10-29T16:01:45;98637.47;;;16.36;63.71
45327;BME280;31062;49.678;24.560;2022-10-29T16:04:31;98615.53;;;16.21;63.73
45327;BME280;31062;49.678;24.560;2022-10-29T16:07:20;98561.72;;;15.76;63.74
45327;BME280;31062;49.678;24.560;2022-10-29T16:10:06;98664.47;;;16.31;63.63
45327;BME280;31062;49.678;24.560;2022-10-29T16:12:57;98528.22;;;15.43;63.62
45327;BME280;31062;49.678;24.560;2022-10-29T16:15:43;98655.69;;;16.25;63.92
45327;BME280;31062;49.678;24.560;2022-10-29T16:18:29;98589.81;;;15.78;64.20
45327;BME280;31062;49.678;24.560;2022-10-29T16:21:20;98593.84;;;15.86;64.22
45327;BME280;31062;49.678;24.560;2022-10-29T16:24:10;98621.44;;;15.92;64.15
45327;BME280;31062;49.678;24.560;2022-10-29T16:26:57;98363.03;;;14.26;64.43
45327;BME280;31062;49.678;24.560;2022-10-29T16:29:43;98478.53;;;15.08;64.41
45327;BME280;31062;49.678;24.560;2022-10-29T16:32:28;98634.63;;;16.13;64.72
45327;BME280;31062;49.678;24.560;2022-10-29T16:35:23;98478.41;;;14.95;64.43
45327;BME280;31062;49.678;24.560;2022-10-29T16:38:08;98652.59;;;16.10;64.95
45327;BME280;31062;49.678;24.560;2022-10-29T16:40:55;98605.34;;;15.69;64.85
45327;BME280;31062;49.678;24.560;2022-10-29T16:43:41;98509.94;;;15.19;64.94
45327;BME280;31062;49.678;24.560;2022-10-29T16:46:27;98643.47;;;15.98;65.29
45327;BME280;31062;49.678;24.560;2022-10-29T16:49:12;98640.03;;;15.87;65.34
45327;BME280;31062;49.678;24.560;2022-10-29T16:51:58;98642.94;;;15.78;65.48
45327;BME280;31062;49.678;24.560;2022-10-29T16:54:43;98518.84;;;14.84;65.86
45327;BME280;31062;49.678;24.560;2022-10-29T16:57:29;98660.97;;;15.65;66.26